Time;durP1;ratioP1;P1;durP2;ratioP2;P2;SDS_P1;SDS_P2;PMS_P1;PMS_P2;Temp;Humidity;BMP_temperature;BMP_pressure;BME280_temperature;BME280_humidity;BME280_pressure;Samples;Min_cycle;Max_cycle;Signal;HPM_P1;HPM_P2
2024/04/09 00:01:37;;;;;;;20.13;6.50;;;;;;;23.68;53.18;100331.34;5505424;25;94701;-75
2024/04/09 00:04:03;;;;;;;18.08;5.72;;;;;;;23.74;53.65;100327.22;5499813;25;95514;-75
2024/04/09 00:06:31;;;;;;;17.75;6.13;;;;;;;23.75;52.71;100329.78;5504141;25;97380;-75
2024/04/09 00:08:57;;;;;;;17.80;5.90;;;;;;;23.95;52.70;100318.88;5510336;25;97152;-74
2024/04/09 00:11:25;;;;;;;15.15;5.72;;;;;;;23.67;53.89;100316.16;5517841;25;94802;-74
2024/04/09 00:13:52;;;;;;;15.90;5.88;;;;;;;23.59;54.39;100320.59;5508398;25;94892;-73
2024/04/09 00:16:22;;;;;;;16.63;5.60;;;;;;;23.29;54.71;100324.38;5509111;25;97203;-75
2024/04/09 00:18:50;;;;;;;16.35;5.53;;;;;;;23.16;55.03;100330.06;5500899;25;98460;-74
2024/04/09 00:21:18;;;;;;;18.88;5.32;;;;;;;23.07;55.20;100330.06;5519034;25;94901;-73
2024/04/09 00:23:44;;;;;;;19.08;5.80;;;;;;;22.91;55.62;100336.03;5514696;25;94923;-74
2024/04/09 00:26:12;;;;;;;21.08;6.35;;;;;;;22.84;55.64;100334.94;5515924;25;96241;-74
2024/04/09 00:28:38;;;;;;;17.58;5.80;;;;;;;22.88;55.47;100339.03;5508814;25;98422;-75
2024/04/09 00:31:07;;;;;;;16.90;5.47;;;;;;;22.89;55.08;100330.81;5509520;25;94668;-75
2024/04/09 00:33:33;;;;;;;25.45;5.47;;;;;;;23.10;54.27;100325.25;5510317;25;95831;-75
2024/04/09 00:36:04;;;;;;;19.05;6.00;;;;;;;23.08;53.92;100323.69;5500078;25;98900;-73
2024/04/09 00:38:29;;;;;;;18.58;5.65;;;;;;;23.16;53.48;100327.38;5509878;25;95741;-74
2024/04/09 00:40:57;;;;;;;20.02;5.95;;;;;;;23.14;53.12;100323.09;5518456;25;94710;-74
2024/04/09 00:43:23;;;;;;;14.75;5.93;;;;;;;23.28;53.44;100325.34;5493835;25;94814;-74
2024/04/09 00:45:55;;;;;;;18.50;6.03;;;;;;;23.24;52.78;100322.06;5494302;25;96245;-74
2024/04/09 00:48:21;;;;;;;16.75;5.93;;;;;;;23.34;52.77;100324.75;5497930;25;97414;-74
2024/04/09 00:50:50;;;;;;;19.25;5.97;;;;;;;23.25;53.52;100329.19;5509051;25;94934;-74
2024/04/09 00:53:19;;;;;;;17.13;5.95;;;;;;;23.04;54.82;100323.09;5515726;25;94977;-74
2024/04/09 00:55:50;;;;;;;14.68;5.85;;;;;;;23.22;53.65;100318.69;5493933;25;96955;-74
2024/04/09 00:58:17;;;;;;;20.75;6.07;;;;;;;23.06;55.05;100321.13;5512561;25;95926;-73
2024/04/09 01:00:46;;;;;;;18.17;5.72;;;;;;;23.10;54.81;100314.47;5500137;25;94724;-73
2024/04/09 01:03:11;;;;;;;28.13;5.40;;;;;;;23.08;55.33;100316.47;5505091;25;94855;-74
2024/04/09 01:05:41;;;;;;;23.60;5.50;;;;;;;23.32;53.84;100321.34;5509899;25;97260;-74
2024/04/09 01:08:06;;;;;;;16.80;5.55;;;;;;;23.07;55.46;100322.84;5494081;25;97028;-74
2024/04/09 01:10:37;;;;;;;22.75;6.30;;;;;;;22.96;56.06;100328.41;5515469;25;95167;-74
2024/04/09 01:13:03;;;;;;;16.20;5.80;;;;;;;23.03;55.60;100316.91;5515097;25;94755;-74
2024/04/09 01:15:32;;;;;;;17.55;5.60;;;;;;;22.95;55.70;100318.59;5509376;25;99658;-74
2024/04/09 01:17:58;;;;;;;16.35;6.65;;;;;;;23.04;56.12;100326.66;5500688;25;96984;-74
2024/04/09 01:20:26;;;;;;;18.73;6.07;;;;;;;23.16;55.50;100321.97;5500921;25;95176;-74
2024/04/09 01:22:55;;;;;;;16.33;5.63;;;;;;;23.32;55.76;100316.81;5498991;25;94732;-73
2024/04/09 01:25:23;;;;;;;15.25;5.32;;;;;;;23.44;54.42;100322.88;5491050;25;97401;-74
2024/04/09 01:27:48;;;;;;;10.77;4.90;;;;;;;23.17;56.03;100323.66;5515025;25;96113;-74
2024/04/09 01:30:18;;;;;;;21.20;5.32;;;;;;;23.33;54.91;100315.81;5505554;25;94762;-73
2024/04/09 01:32:44;;;;;;;19.85;5.85;;;;;;;23.11;54.98;100318.00;5516655;25;94917;-75
2024/04/09 01:35:14;;;;;;;16.80;5.95;;;;;;;23.13;55.00;100310.63;5514828;25;99710;-74
2024/04/09 01:37:39;;;;;;;12.75;5.07;;;;;;;23.15;54.49;100314.03;5514451;25;97216;-75
2024/04/09 01:40:12;;;;;;;15.40;5.95;;;;;;;23.07;55.07;100308.50;5509379;25;94789;-73
2024/04/09 01:42:38;;;;;;;14.85;5.18;;;;;;;22.97;54.65;100317.44;5509007;25;94828;-74
2024/04/09 01:45:07;;;;;;;11.68;5.15;;;;;;;22.86;55.58;100324.84;5510635;25;97162;-74
2024/04/09 01:47:32;;;;;;;21.15;5.55;;;;;;;22.82;55.62;100318.91;5509155;25;100332;-74
2024/04/09 01:50:03;;;;;;;12.63;5.05;;;;;;;22.63;56.46;100314.34;5514380;25;97437;-74
2024/04/09 01:52:30;;;;;;;14.18;5.40;;;;;;;22.75;56.85;100325.00;5512845;25;95985;-74
2024/04/09 01:54:58;;;;;;;14.98;5.70;;;;;;;22.65;56.53;100319.56;5518665;25;96883;-73
2024/04/09 01:57:27;;;;;;;19.83;5.88;;;;;;;22.60;57.17;100317.31;5507688;25;96990;-73
2024/04/09 01:59:56;;;;;;;13.07;5.57;;;;;;;22.65;57.52;100317.72;5514807;25;95242;-74
2024/04/09 02:02:21;;;;;;;16.42;5.85;;;;;;;22.51;57.51;100318.13;5512560;25;94973;-73
2024/04/09 02:04:49;;;;;;;22.25;6.25;;;;;;;22.33;58.41;100325.22;5506801;25;95916;-73
2024/04/09 02:07:15;;;;;;;12.13;5.43;;;;;;;22.52;57.97;100325.22;5510623;25;97237;-74
2024/04/09 02:09:43;;;;;;;11.18;5.50;;;;;;;22.49;58.28;100325.53;5502963;25;95324;-74
2024/04/09 02:12:08;;;;;;;16.33;5.35;;;;;;;22.49;58.33;100328.22;5490795;25;94774;-73
2024/04/09 02:14:39;;;;;;;16.75;5.40;;;;;;;22.04;59.70;100325.19;5513897;25;96296;-73
2024/04/09 02:17:05;;;;;;;17.38;5.35;;;;;;;22.23;59.58;100321.66;5485995;25;97233;-73
2024/04/09 02:19:33;;;;;;;13.02;5.63;;;;;;;21.93;60.83;100321.69;5511775;25;94869;-73
2024/04/09 02:21:58;;;;;;;12.23;5.22;;;;;;;22.17;60.63;100328.47;5521330;25;95659;-74
2024/04/09 02:24:27;;;;;;;14.48;5.47;;;;;;;22.20;59.95;100317.41;5503899;25;96431;-74
2024/04/09 02:26:52;;;;;;;17.63;6.07;;;;;;;22.03;60.59;100319.94;5508913;25;98579;-74
2024/04/09 02:29:21;;;;;;;11.98;5.50;;;;;;;22.08;60.84;100318.53;5503055;25;94691;-74
2024/04/09 02:31:49;;;;;;;17.08;5.80;;;;;;;22.15;60.02;100318.81;5508090;25;95866;-74
2024/04/09 02:34:17;;;;;;;15.50;5.95;;;;;;;22.24;60.25;100318.84;5514224;25;96946;-74
2024/04/09 02:36:43;;;;;;;16.33;5.97;;;;;;;22.22;59.90;100319.97;5513426;25;96757;-73
2024/04/09 02:39:11;;;;;;;12.18;5.65;;;;;;;22.38;59.80;100314.91;5509486;25;94828;-75
2024/04/09 02:41:39;;;;;;;16.20;6.00;;;;;;;22.19;60.60;100314.84;5517051;25;94959;-74
2024/04/09 02:44:07;;;;;;;19.65;6.18;;;;;;;22.26;60.14;100311.47;5512020;25;99704;-73
2024/04/09 02:46:33;;;;;;;12.18;6.13;;;;;;;22.19;60.45;100309.47;5503717;25;96889;-74
2024/04/09 02:49:06;;;;;;;16.15;6.28;;;;;;;22.25;60.23;100303.56;5514188;25;94693;-74
2024/04/09 02:51:31;;;;;;;19.42;6.05;;;;;;;22.29;60.69;100304.97;5509766;25;94923;-74
2024/04/09 02:54:00;;;;;;;16.65;6.60;;;;;;;22.17;60.92;100306.94;5490807;25;98228;-74
2024/04/09 02:56:26;;;;;;;15.90;5.25;;;;;;;22.15;60.75;100305.38;5509377;25;97510;-73
2024/04/09 02:58:54;;;;;;;14.85;6.28;;;;;;;22.06;61.73;100309.72;5512909;25;95265;-74
2024/04/09 03:01:20;;;;;;;18.98;6.28;;;;;;;21.96;61.60;100306.19;5511683;25;95903;-74
2024/04/09 03:03:49;;;;;;;14.45;6.13;;;;;;;22.20;60.73;100300.41;5509468;25;97119;-74
2024/04/09 03:06:17;;;;;;;16.77;6.07;;;;;;;22.25;61.22;100309.75;5503745;25;99694;-73
2024/04/09 03:08:46;;;;;;;14.70;6.45;;;;;;;22.33;60.75;100309.06;5502238;25;94687;-74
2024/04/09 03:11:13;;;;;;;16.95;6.30;;;;;;;22.25;61.43;100312.44;5500919;25;94954;-73
2024/04/09 03:13:43;;;;;;;13.23;6.18;;;;;;;22.16;61.87;100309.75;5510592;25;97070;-74
2024/04/09 03:16:12;;;;;;;19.17;6.00;;;;;;;22.11;61.63;100301.25;5506987;25;96958;-74
2024/04/09 03:18:40;;;;;;;10.57;6.07;;;;;;;22.22;61.62;100309.19;5508218;25;95510;-74
2024/04/09 03:21:06;;;;;;;14.95;6.50;;;;;;;22.23;61.69;100310.91;5509638;25;95309;-74
2024/04/09 03:23:37;;;;;;;13.20;5.85;;;;;;;22.27;61.50;100306.94;5503664;25;100005;-74
2024/04/09 03:26:02;;;;;;;13.88;5.82;;;;;;;22.03;61.88;100310.00;5508556;25;96871;-75
2024/04/09 03:28:31;;;;;;;19.75;6.95;;;;;;;22.00;62.32;100307.59;5509457;25;94820;-73
2024/04/09 03:30:56;;;;;;;18.50;7.15;;;;;;;22.22;62.02;100304.66;5508746;25;95033;-74
2024/04/09 03:33:24;;;;;;;14.23;6.72;;;;;;;22.18;62.45;100303.25;5501584;25;97570;-73
2024/04/09 03:35:51;;;;;;;13.18;6.18;;;;;;;22.12;62.68;100300.28;5517302;25;99934;-72
2024/04/09 03:38:19;;;;;;;11.52;5.88;;;;;;;22.14;62.04;100309.03;5504051;25;95049;-74
2024/04/09 03:40:57;;;;;;;11.52;6.07;;;;;;;21.97;63.34;100301.66;5497478;25;94959;-73
2024/04/09 03:43:25;;;;;;;13.20;6.47;;;;;;;21.90;63.79;100297.78;5514828;25;96444;-74
2024/04/09 03:46:00;;;;;;;18.27;6.07;;;;;;;22.12;63.05;100294.91;5502069;25;96759;-73
2024/04/09 03:48:28;;;;;;;17.83;6.30;;;;;;;21.96;64.08;100308.00;5506631;25;94769;-74
2024/04/09 03:50:53;;;;;;;19.83;6.93;;;;;;;21.92;64.22;100301.19;5520142;25;94763;-73
2024/04/09 03:53:21;;;;;;;22.38;6.70;;;;;;;21.82;64.28;100295.75;5510334;25;97602;-74
2024/04/09 03:55:55;;;;;;;16.65;6.30;;;;;;;22.08;63.40;100288.94;5518119;25;95571;-73
2024/04/09 03:58:23;;;;;;;16.15;6.70;;;;;;;21.79;64.33;100294.19;5510871;25;95388;-74
2024/04/09 04:00:54;;;;;;;17.52;6.70;;;;;;;21.72;65.42;100285.00;5510237;25;94934;-73
2024/04/09 04:03:22;;;;;;;17.30;6.72;;;;;;;21.64;65.45;100287.50;5513508;25;99478;-74
2024/04/09 04:05:50;;;;;;;16.83;6.47;;;;;;;21.54;66.37;100288.44;5505223;25;96763;-74
2024/04/09 04:08:18;;;;;;;16.23;6.45;;;;;;;21.49;66.41;100283.47;5506553;25;94995;-74
2024/04/09 04:10:51;;;;;;;18.98;6.97;;;;;;;21.36;67.66;100282.84;5511972;25;94910;-76
2024/04/09 04:13:23;;;;;;;19.25;6.47;;;;;;;21.25;67.43;100280.25;5508361;25;100102;-73
2024/04/09 04:15:57;;;;;;;17.67;6.78;;;;;;;21.51;66.97;100286.88;5500529;25;95362;-74
2024/04/09 04:18:25;;;;;;;21.40;7.07;;;;;;;21.66;66.20;100282.81;5514269;25;94734;-74
2024/04/09 04:20:51;;;;;;;16.35;6.90;;;;;;;21.62;66.49;100284.09;5502751;25;94928;-74
2024/04/09 04:23:19;;;;;;;18.73;6.28;;;;;;;21.71;65.84;100280.59;5489436;25;98105;-74
2024/04/09 04:25:52;;;;;;;20.25;6.50;;;;;;;21.63;66.17;100282.25;5515942;25;100188;-74
2024/04/09 04:28:23;;;;;;;11.23;6.40;;;;;;;21.45;66.94;100276.69;5507534;25;94984;-73
2024/04/09 04:30:48;;;;;;;14.00;5.97;;;;;;;21.39;66.98;100272.69;5503746;25;94793;-75
2024/04/09 04:33:16;;;;;;;23.55;6.60;;;;;;;21.42;67.02;100269.72;5510966;25;96093;-74
2024/04/09 04:35:42;;;;;;;21.50;6.57;;;;;;;21.30;67.75;100268.13;5509838;25;97244;-75
2024/04/09 04:38:10;;;;;;;21.02;6.00;;;;;;;21.43;67.60;100267.88;5511372;25;95275;-75
2024/04/09 04:40:35;;;;;;;21.92;7.07;;;;;;;21.48;67.45;100271.88;5509337;25;94716;-74
2024/04/09 04:43:03;;;;;;;22.85;6.45;;;;;;;21.40;68.08;100263.63;5511091;25;96284;-74
2024/04/09 04:45:32;;;;;;;16.65;6.30;;;;;;;21.38;68.08;100264.75;5508345;25;97829;-74
2024/04/09 04:48:00;;;;;;;14.82;6.30;;;;;;;21.40;68.12;100265.47;5516279;25;95246;-74
2024/04/09 04:50:25;;;;;;;16.90;6.28;;;;;;;21.60;67.28;100263.69;5494091;25;95268;-73
2024/04/09 04:52:53;;;;;;;18.45;7.30;;;;;;;21.45;67.96;100264.09;5517427;25;96818;-74
2024/04/09 04:55:21;;;;;;;19.20;6.13;;;;;;;21.73;67.02;100267.00;5491051;25;96858;-75
2024/04/09 04:57:47;;;;;;;12.82;6.32;;;;;;;21.77;66.49;100263.06;5510382;25;94744;-73
2024/04/09 05:00:15;;;;;;;15.93;6.70;;;;;;;21.48;67.31;100261.13;5505617;25;94978;-74
2024/04/09 05:02:43;;;;;;;15.63;6.10;;;;;;;21.64;67.19;100265.13;5498936;25;96790;-73
2024/04/09 05:05:12;;;;;;;13.95;6.57;;;;;;;21.57;67.16;100259.47;5506580;25;97747;-74
2024/04/09 05:07:38;;;;;;;10.30;5.65;;;;;;;21.74;66.86;100261.47;5503135;25;94788;-73
2024/04/09 05:10:12;;;;;;;20.73;6.40;;;;;;;21.71;66.68;100256.41;5512878;25;94841;-74
2024/04/09 05:12:38;;;;;;;15.65;6.80;;;;;;;21.75;66.75;100268.56;5516265;25;96053;-73
2024/04/09 05:15:08;;;;;;;20.98;6.35;;;;;;;21.58;67.53;100260.31;5500801;25;97195;-74
2024/04/09 05:17:33;;;;;;;15.65;6.38;;;;;;;21.97;66.65;100258.59;5511113;25;94920;-73
2024/04/09 05:20:09;;;;;;;14.77;5.72;;;;;;;21.94;66.16;100261.53;5512559;25;94669;-73
2024/04/09 05:22:35;;;;;;;19.17;6.93;;;;;;;21.90;66.82;100260.13;5518692;25;95731;-74
2024/04/09 05:25:03;;;;;;;15.18;6.85;;;;;;;21.72;67.17;100268.00;5510016;25;96671;-73
2024/04/09 05:27:28;;;;;;;17.38;6.15;;;;;;;21.75;67.84;100263.19;5501820;25;94752;-74
2024/04/09 05:29:56;;;;;;;15.25;6.60;;;;;;;21.97;66.79;100264.00;5512662;25;96225;-73
2024/04/09 05:32:23;;;;;;;15.13;5.65;;;;;;;22.03;66.79;100258.06;5515201;25;97417;-73
2024/04/09 05:34:51;;;;;;;16.65;6.28;;;;;;;21.85;67.02;100258.69;5513490;25;100098;-73
2024/04/09 05:37:20;;;;;;;17.73;6.13;;;;;;;21.91;66.96;100264.50;5510242;25;94751;-73
2024/04/09 05:39:48;;;;;;;20.65;6.10;;;;;;;22.05;66.36;100270.38;5516597;25;95200;-73
2024/04/09 05:42:13;;;;;;;12.05;6.28;;;;;;;22.06;66.26;100271.22;5507975;25;97160;-74
2024/04/09 05:44:42;;;;;;;18.73;6.45;;;;;;;22.23;65.99;100275.91;5504656;25;97779;-73
2024/04/09 05:47:07;;;;;;;17.15;6.13;;;;;;;22.43;65.73;100274.94;5513444;25;94744;-73
2024/04/09 05:49:36;;;;;;;17.42;5.47;;;;;;;22.55;65.00;100265.72;5505963;25;94925;-73
2024/04/09 05:52:01;;;;;;;15.43;5.40;;;;;;;22.47;64.64;100270.13;5514142;25;97812;-73
2024/04/09 05:54:32;;;;;;;16.77;6.10;;;;;;;22.80;63.19;100264.31;5516461;25;96677;-74
2024/04/09 05:56:58;;;;;;;14.73;5.70;;;;;;;23.18;61.72;100276.00;5495957;25;96663;-73
2024/04/09 05:59:26;;;;;;;12.02;5.20;;;;;;;23.22;62.08;100274.72;5502364;25;94759;-73
2024/04/09 06:01:54;;;;;;;14.63;5.38;;;;;;;23.62;61.01;100271.75;5496186;25;95664;-73
2024/04/09 06:04:22;;;;;;;15.90;5.72;;;;;;;23.73;60.19;100268.84;5511618;25;97519;-72
2024/04/09 06:06:47;;;;;;;11.15;5.18;;;;;;;23.63;59.93;100273.47;5497862;25;94947;-75
2024/04/09 06:09:16;;;;;;;13.60;5.40;;;;;;;23.74;59.58;100259.78;5514796;25;95105;-76
2024/04/09 06:11:44;;;;;;;12.85;5.28;;;;;;;23.83;59.79;100254.31;5505303;25;97379;-74
2024/04/09 06:14:12;;;;;;;14.88;5.70;;;;;;;23.90;59.00;100251.84;5496108;25;95797;-73
2024/04/09 06:16:37;;;;;;;16.27;5.00;;;;;;;24.13;57.83;100253.13;5505080;25;94927;-74
2024/04/09 06:19:06;;;;;;;10.43;4.90;;;;;;;24.21;56.85;100252.41;5503877;25;95238;-73
2024/04/09 06:21:31;;;;;;;18.75;4.88;;;;;;;24.15;57.33;100253.84;5502314;25;96035;-74
2024/04/09 06:23:59;;;;;;;12.75;5.00;;;;;;;24.36;57.16;100247.28;5503983;25;96039;-73
2024/04/09 06:26:24;;;;;;;19.20;5.05;;;;;;;24.28;57.21;100240.00;5503580;25;94797;-74
2024/04/09 06:28:55;;;;;;;11.05;4.82;;;;;;;24.20;57.24;100242.59;5513778;25;95053;-75
2024/04/09 06:31:21;;;;;;;11.82;4.38;;;;;;;24.38;56.76;100246.16;5503664;25;99731;-73
2024/04/09 06:33:50;;;;;;;6.82;4.35;;;;;;;24.47;56.59;100250.63;5508580;25;96823;-74
2024/04/09 06:36:16;;;;;;;11.52;4.25;;;;;;;24.48;56.16;100246.06;5510284;25;95174;-72
2024/04/09 06:38:44;;;;;;;7.55;3.72;;;;;;;24.41;56.03;100240.44;5506590;25;96774;-73
2024/04/09 06:41:10;;;;;;;16.55;4.38;;;;;;;24.44;56.13;100242.81;5509111;25;100059;-75
2024/04/09 06:43:38;;;;;;;7.20;3.80;;;;;;;24.73;55.20;100250.66;5502763;25;97342;-74
2024/04/09 06:46:06;;;;;;;6.75;4.43;;;;;;;24.65;54.93;100247.91;5517146;25;95297;-74
2024/04/09 06:48:34;;;;;;;14.27;5.03;;;;;;;24.70;54.72;100244.72;5506499;25;95191;-73
2024/04/09 06:51:02;;;;;;;9.13;3.95;;;;;;;24.67;55.32;100236.94;5507565;25;98596;-74
2024/04/09 06:53:30;;;;;;;13.80;4.30;;;;;;;24.77;54.23;100240.38;5505228;25;96917;-73
2024/04/09 06:55:55;;;;;;;15.27;4.60;;;;;;;24.92;54.47;100245.09;5508528;25;94823;-73
2024/04/09 06:58:24;;;;;;;11.15;4.22;;;;;;;25.01;53.35;100238.72;5508140;25;94963;-74
2024/04/09 07:00:49;;;;;;;21.48;5.57;;;;;;;25.19;53.00;100238.69;5517488;25;97214;-72
2024/04/09 07:03:20;;;;;;;11.75;5.00;;;;;;;25.30;52.67;100241.09;5503210;25;96096;-74
2024/04/09 07:05:45;;;;;;;18.33;5.70;;;;;;;25.24;52.57;100240.91;5507570;25;95326;-74
2024/04/09 07:08:14;;;;;;;13.10;5.20;;;;;;;25.27;52.83;100237.91;5516797;25;94831;-73
2024/04/09 07:10:39;;;;;;;15.27;4.20;;;;;;;25.39;51.73;100231.19;5505504;25;100044;-74
2024/04/09 07:13:07;;;;;;;14.63;4.32;;;;;;;25.49;51.64;100236.44;5512220;25;95242;-74
2024/04/09 07:15:33;;;;;;;9.10;3.90;;;;;;;25.60;51.32;100234.34;5506765;25;94895;-74
2024/04/09 07:18:03;;;;;;;12.73;4.43;;;;;;;25.49;51.31;100241.88;5500456;25;94951;-74
2024/04/09 07:20:31;;;;;;;17.10;4.45;;;;;;;25.45;51.76;100235.94;5515452;25;97448;-73
2024/04/09 07:23:00;;;;;;;15.93;4.25;;;;;;;25.48;51.60;100235.59;5505213;25;97175;-75
2024/04/09 07:25:27;;;;;;;9.13;3.38;;;;;;;25.46;51.53;100220.56;5514367;25;95370;-74
2024/04/09 07:27:55;;;;;;;14.70;4.28;;;;;;;25.86;50.12;100223.47;5516047;25;94881;-74
2024/04/09 07:30:21;;;;;;;16.02;4.00;;;;;;;25.91;50.34;100220.25;5495641;25;99227;-73
2024/04/09 07:32:50;;;;;;;7.68;3.67;;;;;;;26.06;49.69;100222.13;5503738;25;94910;-75
2024/04/09 07:35:16;;;;;;;6.28;3.92;;;;;;;26.16;49.70;100228.25;5516701;25;95384;-74
2024/04/09 07:37:46;;;;;;;14.35;3.65;;;;;;;26.22;49.05;100228.59;5508692;25;95061;-74
2024/04/09 07:40:15;;;;;;;9.43;4.07;;;;;;;26.25;48.68;100228.28;5505512;25;96826;-73
2024/04/09 07:42:40;;;;;;;16.77;4.22;;;;;;;26.11;49.71;100232.47;5500411;25;97392;-73
2024/04/09 07:45:10;;;;;;;10.15;4.05;;;;;;;26.03;49.10;100222.47;5508188;25;95208;-74
2024/04/09 07:47:35;;;;;;;10.43;3.95;;;;;;;26.47;48.57;100222.19;5499356;25;94930;-74
2024/04/09 07:50:09;;;;;;;11.55;4.30;;;;;;;26.31;48.63;100223.06;5507414;25;96018;-73
2024/04/09 07:52:36;;;;;;;12.02;3.58;;;;;;;26.13;48.79;100219.59;5500444;25;97509;-74
2024/04/09 07:55:10;;;;;;;5.53;3.08;;;;;;;26.24;48.71;100221.16;5515403;25;95480;-74
2024/04/09 07:57:36;;;;;;;12.65;3.35;;;;;;;26.31;49.19;100212.22;5497487;25;97277;-74
2024/04/09 08:00:13;;;;;;;13.90;3.80;;;;;;;26.46;48.35;100215.09;5513188;25;103477;-73
2024/04/09 08:02:39;;;;;;;9.52;3.60;;;;;;;26.56;47.83;100204.94;5510251;25;95620;-73
2024/04/09 08:05:09;;;;;;;12.82;3.70;;;;;;;26.54;48.21;100207.81;5497195;25;95027;-73
2024/04/09 08:07:38;;;;;;;11.52;3.22;;;;;;;26.85;47.35;100207.09;5500478;25;95626;-74
2024/04/09 08:10:11;;;;;;;23.48;3.88;;;;;;;26.82;46.47;100205.59;5515847;25;97099;-74
2024/04/09 08:12:37;;;;;;;15.55;3.30;;;;;;;27.04;45.81;100204.06;5509867;25;96803;-74
2024/04/09 08:15:07;;;;;;;24.27;3.70;;;;;;;27.13;45.85;100204.88;5515663;25;95664;-75
2024/04/09 08:17:33;;;;;;;10.30;3.10;;;;;;;27.01;45.58;100193.56;5503000;25;95411;-73
2024/04/09 08:20:01;;;;;;;9.82;2.75;;;;;;;27.21;45.66;100199.44;5518655;25;96792;-74
2024/04/09 08:22:27;;;;;;;8.60;3.13;;;;;;;27.16;45.11;100197.25;5498299;25;96314;-74
2024/04/09 08:24:58;;;;;;;12.68;3.10;;;;;;;26.95;45.41;100194.25;5508714;25;94854;-73
2024/04/09 08:27:26;;;;;;;9.07;2.83;;;;;;;27.33;45.09;100195.31;5501655;25;94912;-74
2024/04/09 08:29:54;;;;;;;14.50;3.40;;;;;;;27.51;44.54;100200.47;5503647;25;97066;-74
2024/04/09 08:32:20;;;;;;;9.27;2.75;;;;;;;27.51;44.05;100195.91;5511591;25;96409;-74
2024/04/09 08:34:48;;;;;;;26.13;4.78;;;;;;;27.74;44.37;100190.56;5515355;25;94969;-75
2024/04/09 08:37:14;;;;;;;9.95;3.00;;;;;;;27.60;43.36;100192.16;5523026;25;94874;-72
2024/04/09 08:39:42;;;;;;;19.90;3.53;;;;;;;27.56;44.09;100192.72;5513015;25;96264;-74
2024/04/09 08:42:07;;;;;;;18.77;4.07;;;;;;;27.73;43.46;100188.88;5499030;25;95660;-76
2024/04/09 08:44:39;;;;;;;13.70;3.20;;;;;;;27.97;42.62;100186.00;5512671;25;94763;-74
2024/04/09 08:47:08;;;;;;;8.45;2.88;;;;;;;28.09;42.67;100183.75;5505792;25;95450;-73
2024/04/09 08:49:37;;;;;;;20.30;3.85;;;;;;;28.37;41.91;100179.47;5509877;25;97587;-74
2024/04/09 08:52:04;;;;;;;12.02;3.20;;;;;;;28.54;41.11;100178.31;5512920;25;95628;-74
2024/04/09 08:54:32;;;;;;;6.53;2.45;;;;;;;28.53;41.34;100187.50;5503996;25;94723;-74
2024/04/09 08:56:59;;;;;;;13.57;3.25;;;;;;;28.57;41.46;100181.66;5518295;25;95350;-74
2024/04/09 08:59:29;;;;;;;11.60;3.40;;;;;;;28.53;41.50;100182.06;5508186;25;97189;-73
2024/04/09 09:02:02;;;;;;;10.93;2.92;;;;;;;28.83;40.56;100176.69;5516761;25;96847;-72
2024/04/09 09:04:36;;;;;;;6.78;2.83;;;;;;;28.97;40.75;100172.28;5508322;25;95781;-74
2024/04/09 09:07:04;;;;;;;32.33;4.93;;;;;;;29.03;41.04;100169.66;5497655;25;98604;-74
2024/04/09 09:09:32;;;;;;;8.60;2.97;;;;;;;28.84;39.88;100172.94;5499373;25;96869;-74
2024/04/09 09:12:01;;;;;;;10.48;2.90;;;;;;;29.01;40.13;100174.47;5516909;25;100305;-75
2024/04/09 09:14:29;;;;;;;9.80;2.80;;;;;;;28.76;40.70;100167.56;5500766;25;95887;-74
2024/04/09 09:17:01;;;;;;;15.38;3.22;;;;;;;28.88;39.64;100164.22;5512345;25;96394;-74
2024/04/09 09:19:31;;;;;;;16.50;3.42;;;;;;;28.90;40.00;100159.44;5508190;25;97232;-74
2024/04/09 09:21:57;;;;;;;18.30;4.13;;;;;;;28.99;39.39;100154.75;5504895;25;97055;-74
2024/04/09 09:24:26;;;;;;;10.10;3.33;;;;;;;29.05;39.57;100164.91;5499387;25;95296;-74
2024/04/09 09:26:58;;;;;;;14.50;3.38;;;;;;;29.12;39.59;100160.41;5502488;25;96577;-74
2024/04/09 09:29:26;;;;;;;8.65;2.83;;;;;;;29.10;39.64;100164.31;5509103;25;95558;-75
2024/04/09 09:31:52;;;;;;;6.40;2.70;;;;;;;29.21;38.62;100161.97;5503032;25;97049;-74
2024/04/09 09:34:29;;;;;;;9.65;3.20;;;;;;;29.28;37.93;100165.63;5504651;25;94779;-74
2024/04/09 09:36:58;;;;;;;9.77;3.08;;;;;;;29.24;39.64;100168.91;5499568;25;94808;-74
2024/04/09 09:39:28;;;;;;;12.32;3.40;;;;;;;29.59;38.91;100157.28;5508236;25;95883;-75
2024/04/09 09:41:55;;;;;;;19.63;3.30;;;;;;;29.57;38.63;100162.06;5505658;25;98114;-75
2024/04/09 09:44:25;;;;;;;8.50;2.70;;;;;;;29.57;37.87;100159.34;5508144;25;95019;-75
2024/04/09 09:46:51;;;;;;;9.55;3.17;;;;;;;29.50;38.43;100163.84;5514360;25;94978;-75
2024/04/09 09:49:23;;;;;;;7.68;2.88;;;;;;;29.25;37.97;100165.16;5506911;25;96070;-74
2024/04/09 09:51:49;;;;;;;8.43;2.90;;;;;;;29.36;38.26;100172.03;5510227;25;95157;-74
2024/04/09 09:54:17;;;;;;;15.18;3.50;;;;;;;29.32;38.93;100157.94;5514300;25;96228;-75
2024/04/09 09:56:48;;;;;;;9.98;3.20;;;;;;;29.56;38.69;100160.38;5512599;25;94903;-73
2024/04/09 09:59:31;;;;;;;14.80;3.00;;;;;;;29.40;39.32;100154.31;5510624;25;96822;-76
2024/04/09 10:02:00;;;;;;;10.32;2.97;;;;;;;29.04;39.11;100148.75;5513330;25;96974;-75
2024/04/09 10:04:31;;;;;;;12.23;3.08;;;;;;;29.27;39.49;100149.50;5510038;25;95295;-75
2024/04/09 10:06:57;;;;;;;9.45;3.00;;;;;;;29.40;38.76;100148.88;5510175;25;95041;-75
2024/04/09 10:09:39;;;;;;;8.63;2.17;;;;;;;29.21;39.14;100153.81;5503005;25;96050;-74
2024/04/09 10:12:07;;;;;;;14.50;3.17;;;;;;;29.32;39.57;100150.63;5505164;25;96869;-74
2024/04/09 10:14:40;;;;;;;10.27;2.80;;;;;;;29.42;39.06;100149.50;5507333;25;95091;-75
2024/04/09 10:17:10;;;;;;;19.10;4.00;;;;;;;29.64;37.98;100148.53;5500593;25;94732;-75
2024/04/09 10:19:44;;;;;;;15.18;3.33;;;;;;;29.96;37.86;100153.50;5510735;25;99416;-75
2024/04/09 10:22:09;;;;;;;8.57;2.53;;;;;;;29.86;38.05;100152.13;5520743;25;97305;-75
2024/04/09 10:24:38;;;;;;;7.72;2.50;;;;;;;29.91;37.70;100149.66;5510399;25;95309;-74
2024/04/09 10:27:04;;;;;;;10.10;2.90;;;;;;;29.97;38.07;100138.03;5511576;25;94933;-75
2024/04/09 10:29:33;;;;;;;13.45;2.83;;;;;;;29.77;38.03;100142.38;5504404;25;97261;-74
2024/04/09 10:31:58;;;;;;;9.80;2.92;;;;;;;29.93;37.86;100143.00;5511607;25;100377;-73
2024/04/09 10:34:27;;;;;;;7.88;2.83;;;;;;;29.91;38.09;100130.59;5508841;25;94837;-74
2024/04/09 10:36:58;;;;;;;11.13;2.60;;;;;;;30.05;37.00;100137.91;5511595;25;94931;-75
2024/04/09 10:39:24;;;;;;;10.65;2.80;;;;;;;30.17;37.60;100130.03;5510196;25;96962;-74
2024/04/09 10:41:59;;;;;;;9.43;2.85;;;;;;;30.40;37.56;100136.09;5519099;25;97028;-75
2024/04/09 10:44:25;;;;;;;10.60;2.85;;;;;;;30.52;36.87;100137.31;5509245;25;95582;-75
2024/04/09 10:46:53;;;;;;;17.83;3.25;;;;;;;30.42;37.14;100143.03;5503923;25;95831;-75
2024/04/09 10:49:19;;;;;;;9.95;3.10;;;;;;;30.63;36.51;100135.91;5496639;25;97215;-75
2024/04/09 10:51:48;;;;;;;12.45;3.20;;;;;;;30.55;37.07;100136.03;5513231;25;95674;-74
2024/04/09 10:54:16;;;;;;;11.05;2.95;;;;;;;30.61;37.08;100135.25;5501307;25;94787;-73
2024/04/09 10:56:45;;;;;;;16.17;3.30;;;;;;;30.66;36.64;100143.66;5511997;25;95425;-75
2024/04/09 10:59:13;;;;;;;14.50;3.40;;;;;;;30.82;36.47;100140.66;5507375;25;95514;-75
2024/04/09 11:01:42;;;;;;;10.30;2.90;;;;;;;30.87;37.21;100138.16;5500935;25;96825;-74
2024/04/09 11:04:11;;;;;;;11.25;3.28;;;;;;;30.68;36.76;100141.59;5514527;25;95202;-75
2024/04/09 11:06:40;;;;;;;12.57;3.05;;;;;;;30.84;36.82;100142.16;5504190;25;96065;-75
2024/04/09 11:09:06;;;;;;;18.02;3.53;;;;;;;30.81;37.10;100150.72;5501062;25;96036;-74
2024/04/09 11:11:37;;;;;;;12.65;3.05;;;;;;;30.96;35.49;100147.88;5506500;25;99307;-74
2024/04/09 11:14:03;;;;;;;8.60;2.65;;;;;;;30.74;35.22;100146.25;5501953;25;94900;-74
2024/04/09 11:16:31;;;;;;;10.98;3.13;;;;;;;30.89;36.23;100145.09;5507159;25;94879;-76
2024/04/09 11:18:57;;;;;;;16.42;4.53;;;;;;;30.75;35.25;100137.03;5517240;25;97913;-76
2024/04/09 11:21:26;;;;;;;12.30;4.60;;;;;;;31.01;34.77;100145.38;5495234;25;97296;-74